createdAt,value
2023-03-06T00:01:20.208Z,66.56
2023-03-06T00:03:49.081Z,66.90
2023-03-06T00:06:17.721Z,67.22
2023-03-06T00:08:46.732Z,67.28
2023-03-06T00:11:15.686Z,66.23
2023-03-06T00:13:44.479Z,66.36
2023-03-06T00:16:15.539Z,66.85
2023-03-06T00:18:44.364Z,67.08
2023-03-06T00:21:13.187Z,66.84
2023-03-06T00:23:42.289Z,67.38
2023-03-06T00:26:11.805Z,67.74
2023-03-06T00:28:43.363Z,68.52
2023-03-06T00:31:12.214Z,68.59
2023-03-06T00:33:43.760Z,67.82
2023-03-06T00:36:12.523Z,68.63
2023-03-06T00:38:43.189Z,68.01
2023-03-06T00:41:13.374Z,68.47
2023-03-06T00:43:42.099Z,69.00
2023-03-06T00:46:11.029Z,69.00
2023-03-06T00:48:42.820Z,68.60
2023-03-06T00:51:14.050Z,68.89
2023-03-06T00:53:42.954Z,68.92
2023-03-06T00:56:11.677Z,69.97
2023-03-06T00:58:40.689Z,70.00
2023-03-06T01:01:09.428Z,70.11
2023-03-06T01:03:38.648Z,69.91
2023-03-06T01:06:09.096Z,70.18
2023-03-06T01:08:37.783Z,70.52
2023-03-06T01:11:06.646Z,69.98
2023-03-06T01:13:35.454Z,69.79
2023-03-06T01:16:09.142Z,70.48
2023-03-06T01:18:38.329Z,70.52
2023-03-06T01:21:08.983Z,69.65
2023-03-06T01:23:37.970Z,70.07
2023-03-06T01:26:07.597Z,69.61
2023-03-06T01:28:37.582Z,70.27
2023-03-06T01:31:07.112Z,70.72
2023-03-06T01:33:36.116Z,70.87
2023-03-06T01:36:06.096Z,70.75
2023-03-06T01:38:36.706Z,71.14
2023-03-06T01:41:07.275Z,70.79
2023-03-06T01:43:38.266Z,70.84
2023-03-06T01:46:28.860Z,70.65
2023-03-06T01:49:00.977Z,70.42
2023-03-06T01:51:33.851Z,69.66
2023-03-06T01:54:12.881Z,69.86
2023-03-06T01:56:46.434Z,69.61
2023-03-06T01:59:16.905Z,70.29
2023-03-06T02:01:46.197Z,70.21
2023-03-06T02:04:17.740Z,70.22
2023-03-06T02:06:46.890Z,70.33
2023-03-06T02:09:17.584Z,70.64
2023-03-06T02:11:46.519Z,71.27
2023-03-06T02:14:18.690Z,71.03
2023-03-06T02:16:47.656Z,71.12
2023-03-06T02:19:34.602Z,71.06
2023-03-06T02:22:04.715Z,71.06
2023-03-06T02:24:47.191Z,70.95
2023-03-06T02:27:18.799Z,71.80
2023-03-06T02:29:47.737Z,71.97
2023-03-06T02:32:16.732Z,71.45
2023-03-06T02:34:56.125Z,71.21
2023-03-06T02:37:27.460Z,72.06
2023-03-06T02:40:05.028Z,71.56
2023-03-06T02:42:35.260Z,71.74
2023-03-06T02:45:07.883Z,71.93
2023-03-06T02:47:36.662Z,71.95
2023-03-06T02:50:05.719Z,71.81
2023-03-06T02:52:34.648Z,71.49
2023-03-06T02:55:04.335Z,71.70
2023-03-06T02:57:34.527Z,71.44
2023-03-06T03:00:03.959Z,71.56
2023-03-06T03:02:32.959Z,71.14
2023-03-06T03:05:01.807Z,70.87
2023-03-06T03:07:31.710Z,70.98
2023-03-06T03:10:00.634Z,70.98
2023-03-06T03:12:29.676Z,71.20
2023-03-06T03:14:59.836Z,71.13
2023-03-06T03:17:30.575Z,71.53
2023-03-06T03:20:00.158Z,70.90
2023-03-06T03:22:28.905Z,71.30
2023-03-06T03:24:57.871Z,71.64
2023-03-06T03:27:26.690Z,72.02
2023-03-06T03:30:00.375Z,71.94
2023-03-06T03:32:31.153Z,72.05
2023-03-06T03:35:00.346Z,71.52
2023-03-06T03:37:29.741Z,71.82
2023-03-06T03:39:58.582Z,72.17
2023-03-06T03:42:27.540Z,71.96
2023-03-06T03:44:56.639Z,72.09
2023-03-06T03:47:27.874Z,72.98
2023-03-06T03:49:56.592Z,72.16
2023-03-06T03:52:26.655Z,72.59
2023-03-06T03:54:55.853Z,71.98
2023-03-06T03:57:24.702Z,72.00
2023-03-06T03:59:55.738Z,72.09
2023-03-06T04:02:30.592Z,71.99
2023-03-06T04:05:07.826Z,72.52
2023-03-06T04:07:36.758Z,71.67
2023-03-06T04:10:06.051Z,72.16
2023-03-06T04:12:34.829Z,71.22
2023-03-06T04:15:03.592Z,71.45
2023-03-06T04:17:35.180Z,71.10
2023-03-06T04:20:07.557Z,71.17
2023-03-06T04:22:38.128Z,70.44
2023-03-06T04:25:07.870Z,70.60
2023-03-06T04:27:37.812Z,70.73
2023-03-06T04:30:08.211Z,70.78
2023-03-06T04:32:39.671Z,70.79
2023-03-06T04:35:09.082Z,71.47
2023-03-06T04:37:45.849Z,71.35
2023-03-06T04:40:19.517Z,71.16
2023-03-06T04:42:48.760Z,71.55
2023-03-06T04:45:17.993Z,71.37
2023-03-06T04:47:48.894Z,71.02
2023-03-06T04:50:18.369Z,71.48
2023-03-06T04:52:47.245Z,71.24
2023-03-06T04:55:18.396Z,72.11
2023-03-06T04:57:48.733Z,71.88
2023-03-06T05:00:20.081Z,71.24
2023-03-06T05:02:51.314Z,71.82
2023-03-06T05:05:20.625Z,71.39
2023-03-06T05:07:49.516Z,72.00
2023-03-06T05:10:19.651Z,70.85
2023-03-06T05:12:48.390Z,71.05
2023-03-06T05:15:17.598Z,70.49
2023-03-06T05:17:46.660Z,70.48
2023-03-06T05:20:18.243Z,70.96
2023-03-06T05:22:47.036Z,70.39
2023-03-06T05:25:15.761Z,70.62
2023-03-06T05:27:44.654Z,71.36
2023-03-06T05:30:15.604Z,71.17
2023-03-06T05:32:45.739Z,71.24
2023-03-06T05:35:21.635Z,71.82
2023-03-06T05:37:50.688Z,71.74
2023-03-06T05:40:20.172Z,71.86
2023-03-06T05:42:48.978Z,71.51
2023-03-06T05:45:18.286Z,71.90
2023-03-06T05:47:47.064Z,71.85
2023-03-06T05:50:15.933Z,72.27
2023-03-06T05:52:46.167Z,71.58
2023-03-06T05:55:15.828Z,71.56
2023-03-06T05:57:44.703Z,72.30
2023-03-06T06:00:15.315Z,72.40
2023-03-06T06:02:46.480Z,72.35
2023-03-06T06:05:15.572Z,71.94
2023-03-06T06:07:45.660Z,72.37
2023-03-06T06:10:14.470Z,72.81
2023-03-06T06:12:43.191Z,72.63
2023-03-06T06:15:11.999Z,72.60
2023-03-06T06:17:40.702Z,73.14
2023-03-06T06:20:10.841Z,73.41
2023-03-06T06:22:39.625Z,73.11
2023-03-06T06:25:10.404Z,74.08
2023-03-06T06:27:39.186Z,74.21
2023-03-06T06:30:09.722Z,74.23
2023-03-06T06:32:38.942Z,73.35
2023-03-06T06:35:08.593Z,74.23
2023-03-06T06:37:37.542Z,74.10
2023-03-06T06:40:07.436Z,73.28
2023-03-06T06:42:40.174Z,73.57
2023-03-06T06:45:10.725Z,73.85
2023-03-06T06:47:41.930Z,72.78
2023-03-06T06:50:13.679Z,72.65
2023-03-06T06:52:42.548Z,73.01
2023-03-06T06:55:12.932Z,72.04
2023-03-06T06:57:43.639Z,71.79
2023-03-06T07:00:15.784Z,71.91
2023-03-06T07:02:45.028Z,71.94
2023-03-06T07:05:13.892Z,71.31
2023-03-06T07:07:42.659Z,71.66
2023-03-06T07:10:16.134Z,71.47
2023-03-06T07:12:46.862Z,70.97
2023-03-06T07:15:18.167Z,71.05
2023-03-06T07:17:49.572Z,70.63
2023-03-06T07:20:19.593Z,69.99
2023-03-06T07:22:51.769Z,70.21
2023-03-06T07:25:21.753Z,69.86
2023-03-06T07:27:54.894Z,69.70
2023-03-06T07:30:24.601Z,69.03
2023-03-06T07:32:56.974Z,69.42
2023-03-06T07:35:27.191Z,69.44
2023-03-06T07:37:56.131Z,68.74
2023-03-06T07:40:25.315Z,68.98
2023-03-06T07:43:09.127Z,68.27
2023-03-06T07:45:57.611Z,68.44
2023-03-06T07:48:26.587Z,68.40
2023-03-06T07:51:00.004Z,67.65
2023-03-06T07:53:29.225Z,67.75
2023-03-06T07:55:58.140Z,68.45
2023-03-06T07:58:29.073Z,67.86
2023-03-06T08:00:58.028Z,67.71
2023-03-06T08:03:26.771Z,67.98
2023-03-06T08:05:55.638Z,68.14
2023-03-06T08:08:24.330Z,68.35
2023-03-06T08:10:53.056Z,68.03
2023-03-06T08:13:21.677Z,68.63
2023-03-06T08:15:51.957Z,67.58
2023-03-06T08:18:21.512Z,67.81
2023-03-06T08:20:50.210Z,66.84
2023-03-06T08:23:18.830Z,66.48
2023-03-06T08:25:47.557Z,66.90
2023-03-06T08:28:16.278Z,66.53
2023-03-06T08:30:46.359Z,66.48
2023-03-06T08:33:16.437Z,66.07
2023-03-06T08:35:45.162Z,65.47
2023-03-06T08:38:13.834Z,65.66
2023-03-06T08:40:42.667Z,65.64
2023-03-06T08:43:13.753Z,65.67
2023-03-06T08:45:43.344Z,64.86
2023-03-06T08:48:12.090Z,65.03
2023-03-06T08:50:43.907Z,64.75
2023-03-06T08:53:12.678Z,64.28
2023-03-06T08:55:41.347Z,63.61
2023-03-06T08:58:10.126Z,63.69
2023-03-06T09:00:39.389Z,63.36
2023-03-06T09:03:08.127Z,63.36
2023-03-06T09:05:36.864Z,62.88
2023-03-06T09:08:06.910Z,62.33
2023-03-06T09:10:35.709Z,62.19
2023-03-06T09:13:05.039Z,62.20
2023-03-06T09:15:33.683Z,61.86
2023-03-06T09:18:02.445Z,61.22
2023-03-06T09:20:31.152Z,60.83
2023-03-06T09:22:59.916Z,60.23
2023-03-06T09:25:30.312Z,60.56
2023-03-06T09:28:10.885Z,60.21
2023-03-06T09:30:42.115Z,60.05
2023-03-06T09:33:10.813Z,59.34
2023-03-06T09:35:44.673Z,59.02
2023-03-06T09:38:13.411Z,58.75
2023-03-06T09:41:01.438Z,58.19
2023-03-06T09:43:35.561Z,58.15
2023-03-06T09:46:14.671Z,57.89
2023-03-06T09:48:56.171Z,57.97
2023-03-06T09:51:33.159Z,58.02
2023-03-06T09:54:13.449Z,57.76
2023-03-06T09:56:48.819Z,57.40
2023-03-06T09:59:22.038Z,58.00
2023-03-06T10:02:01.824Z,57.87
2023-03-06T10:04:37.866Z,57.94
2023-03-06T10:07:14.690Z,58.40
2023-03-06T10:09:50.106Z,58.50
2023-03-06T10:12:28.898Z,57.57
2023-03-06T10:15:04.198Z,57.71
2023-03-06T10:17:37.815Z,57.48
2023-03-06T10:20:19.229Z,57.63
2023-03-06T10:23:11.083Z,58.51
2023-03-06T10:25:50.451Z,58.27
2023-03-06T10:28:26.963Z,58.96
2023-03-06T10:31:03.680Z,58.81
2023-03-06T10:33:51.880Z,59.20
2023-03-06T10:36:22.565Z,59.85
2023-03-06T10:38:51.325Z,59.62
2023-03-06T10:41:27.405Z,59.90
2023-03-06T10:44:17.837Z,59.22
2023-03-06T10:46:51.005Z,59.07
2023-03-06T10:49:34.037Z,59.32
2023-03-06T10:52:05.622Z,59.96
2023-03-06T10:54:35.927Z,59.21
2023-03-06T10:57:26.407Z,58.86
2023-03-06T10:59:57.427Z,59.19
2023-03-06T11:02:30.849Z,58.58
2023-03-06T11:05:03.881Z,58.92
2023-03-06T11:07:33.190Z,59.16
2023-03-06T11:10:09.294Z,59.93
2023-03-06T11:12:39.772Z,60.54
2023-03-06T11:15:19.050Z,60.48
2023-03-06T11:17:55.772Z,60.28
2023-03-06T11:20:31.794Z,60.33
2023-03-06T11:23:10.282Z,61.36
2023-03-06T11:25:42.822Z,62.04
2023-03-06T11:28:22.241Z,61.98
2023-03-06T11:30:53.980Z,61.86
2023-03-06T11:33:31.128Z,62.15
2023-03-06T11:36:06.775Z,62.26
2023-03-06T11:38:43.289Z,62.66
2023-03-06T11:41:20.768Z,62.42
2023-03-06T11:43:56.606Z,62.33
2023-03-06T11:46:29.931Z,62.83
2023-03-06T11:49:07.948Z,62.41
2023-03-06T11:51:43.519Z,62.11
2023-03-06T11:54:15.274Z,62.61
2023-03-06T11:56:54.845Z,62.84
2023-03-06T11:59:42.227Z,62.68
2023-03-06T12:02:25.069Z,62.79
2023-03-06T12:05:13.939Z,62.17
2023-03-06T12:07:48.864Z,62.26
2023-03-06T12:10:23.674Z,62.76
2023-03-06T12:13:16.470Z,63.01
2023-03-06T12:15:59.329Z,62.80
2023-03-06T12:18:40.921Z,62.23
2023-03-06T12:21:18.766Z,62.07
2023-03-06T12:24:13.107Z,62.47
2023-03-06T12:26:58.651Z,63.31
2023-03-06T12:29:40.858Z,63.60
2023-03-06T12:32:29.881Z,64.03
2023-03-06T12:35:18.892Z,64.25
2023-03-06T12:38:00.085Z,64.63
2023-03-06T12:40:52.184Z,64.81
2023-03-06T12:43:41.364Z,64.52
2023-03-06T12:46:15.595Z,65.10
2023-03-06T12:48:48.684Z,65.07
2023-03-06T12:51:22.224Z,65.38
2023-03-06T12:53:53.136Z,65.95
2023-03-06T12:56:22.864Z,66.09
2023-03-06T12:58:52.814Z,66.27
2023-03-06T13:01:42.479Z,66.47
2023-03-06T13:04:21.896Z,66.32
2023-03-06T13:07:11.999Z,66.40
2023-03-06T13:09:58.948Z,66.44
2023-03-06T13:12:44.362Z,66.30
2023-03-06T13:15:38.661Z,66.51
2023-03-06T13:18:37.091Z,66.17
2023-03-06T13:21:06.145Z,66.67
2023-03-06T13:23:51.335Z,66.18
2023-03-06T13:26:42.137Z,66.49
2023-03-06T13:29:36.622Z,66.52
2023-03-06T13:32:18.540Z,66.31
2023-03-06T13:34:49.291Z,67.09
2023-03-06T13:37:46.705Z,67.26
2023-03-06T13:40:26.439Z,66.79
2023-03-06T13:43:05.764Z,66.71
2023-03-06T13:45:39.143Z,66.56
2023-03-06T13:48:45.311Z,66.64
2023-03-06T13:51:24.010Z,67.00
2023-03-06T13:54:26.157Z,66.83
2023-03-06T13:57:21.039Z,66.78
2023-03-06T14:00:15.126Z,66.59
2023-03-06T14:03:25.218Z,66.68
2023-03-06T14:05:55.609Z,66.31
2023-03-06T14:08:26.571Z,66.40
2023-03-06T14:11:04.324Z,66.85
2023-03-06T14:13:47.139Z,66.29
2023-03-06T14:16:22.958Z,66.54
2023-03-06T14:18:55.020Z,66.82
2023-03-06T14:21:31.863Z,66.48
2023-03-06T14:24:02.179Z,67.00
2023-03-06T14:26:34.242Z,66.91
2023-03-06T14:29:04.313Z,67.29
2023-03-06T14:31:35.879Z,67.13
2023-03-06T14:34:06.908Z,66.82
2023-03-06T14:36:44.193Z,66.70
2023-03-06T14:39:16.750Z,67.45
2023-03-06T14:41:45.535Z,67.01
2023-03-06T14:44:20.663Z,67.24
2023-03-06T14:46:52.148Z,67.25
2023-03-06T14:49:23.802Z,66.84
2023-03-06T14:51:56.056Z,67.10
2023-03-06T14:54:29.883Z,66.86
2023-03-06T14:57:06.333Z,67.42
2023-03-06T14:59:42.609Z,67.39
2023-03-06T15:02:18.785Z,67.21
2023-03-06T15:04:50.987Z,67.58
2023-03-06T15:07:26.851Z,67.61
2023-03-06T15:09:56.303Z,67.75
2023-03-06T15:12:37.182Z,67.61
2023-03-06T15:15:28.206Z,67.77
2023-03-06T15:17:57.014Z,68.00
2023-03-06T15:20:47.567Z,67.76
2023-03-06T15:23:26.683Z,67.43
2023-03-06T15:25:59.034Z,68.23
2023-03-06T15:28:34.196Z,67.89
2023-03-06T15:31:21.369Z,67.85
2023-03-06T15:34:15.731Z,67.99
2023-03-06T15:36:46.191Z,67.60
2023-03-06T15:39:34.852Z,68.03
2023-03-06T15:42:09.107Z,68.26
2023-03-06T15:44:37.975Z,68.37
2023-03-06T15:47:09.060Z,68.54
2023-03-06T15:49:39.045Z,68.12
2023-03-06T15:52:08.183Z,68.08
2023-03-06T15:54:38.701Z,68.23
2023-03-06T15:57:15.327Z,68.91
2023-03-06T15:59:46.387Z,68.83
2023-03-06T16:02:18.493Z,69.03
2023-03-06T16:04:48.015Z,69.21
2023-03-06T16:07:17.524Z,68.86
2023-03-06T16:09:47.798Z,68.88
2023-03-06T16:12:20.019Z,68.82
2023-03-06T16:14:50.017Z,68.85
2023-03-06T16:17:19.235Z,69.42
2023-03-06T16:19:48.064Z,68.76
2023-03-06T16:22:17.004Z,68.94
2023-03-06T16:24:45.783Z,69.32
2023-03-06T16:27:20.030Z,68.74
2023-03-06T16:29:48.803Z,69.39
2023-03-06T16:32:17.515Z,68.83
2023-03-06T16:34:46.364Z,68.75
2023-03-06T16:37:15.511Z,69.47
2023-03-06T16:39:44.300Z,69.05
2023-03-06T16:42:13.059Z,68.73
2023-03-06T16:44:43.251Z,69.51
2023-03-06T16:47:13.384Z,69.30
2023-03-06T16:49:42.170Z,69.75
2023-03-06T16:52:12.284Z,69.88
2023-03-06T16:54:42.838Z,70.26
2023-03-06T16:57:15.531Z,69.90
2023-03-06T16:59:45.811Z,70.53
2023-03-06T17:02:14.742Z,70.64
2023-03-06T17:04:43.543Z,70.55
2023-03-06T17:07:12.364Z,70.87
2023-03-06T17:09:40.993Z,70.30
2023-03-06T17:12:10.680Z,70.62
2023-03-06T17:14:39.210Z,71.21
2023-03-06T17:17:09.485Z,70.78
2023-03-06T17:19:38.101Z,71.68
2023-03-06T17:22:07.098Z,71.90
2023-03-06T17:24:37.535Z,72.41
2023-03-06T17:27:06.545Z,72.31
2023-03-06T17:29:35.178Z,72.31
2023-03-06T17:32:04.308Z,71.60
2023-03-06T17:34:34.456Z,71.92
2023-03-06T17:37:03.315Z,72.47
2023-03-06T17:39:34.029Z,72.46
2023-03-06T17:42:03.436Z,71.83
2023-03-06T17:44:32.424Z,71.71
2023-03-06T17:47:01.224Z,72.22
2023-03-06T17:49:30.079Z,72.49
2023-03-06T17:52:03.176Z,72.74
2023-03-06T17:54:33.383Z,72.58
2023-03-06T17:57:05.568Z,73.30
2023-03-06T17:59:35.672Z,73.40
2023-03-06T18:02:06.572Z,72.40
2023-03-06T18:04:35.545Z,73.54
2023-03-06T18:07:05.964Z,73.63
2023-03-06T18:09:35.093Z,73.69
2023-03-06T18:12:03.896Z,73.11
2023-03-06T18:14:32.731Z,73.15
2023-03-06T18:17:01.372Z,73.83
2023-03-06T18:19:30.342Z,74.08
2023-03-06T18:21:59.022Z,73.87
2023-03-06T18:24:29.240Z,74.02
2023-03-06T18:26:58.503Z,73.75
2023-03-06T18:29:27.306Z,73.75
2023-03-06T18:31:57.232Z,74.69
2023-03-06T18:34:26.542Z,73.84
2023-03-06T18:36:55.293Z,74.53
2023-03-06T18:39:24.206Z,74.14
2023-03-06T18:41:54.950Z,73.77
2023-03-06T18:44:24.063Z,73.68
2023-03-06T18:46:52.746Z,74.22
2023-03-06T18:49:22.462Z,74.62
2023-03-06T18:51:51.536Z,74.38
2023-03-06T18:54:20.419Z,74.51
2023-03-06T18:56:49.623Z,75.03
2023-03-06T18:59:20.364Z,75.16
2023-03-06T19:01:50.059Z,74.28
2023-03-06T19:04:18.604Z,75.13
2023-03-06T19:06:47.319Z,74.65
2023-03-06T19:09:16.134Z,74.27
2023-03-06T19:11:47.024Z,74.75
2023-03-06T19:14:16.363Z,74.33
2023-03-06T19:16:46.550Z,75.00
2023-03-06T19:19:15.266Z,75.13
2023-03-06T19:21:43.984Z,74.51
2023-03-06T19:24:14.373Z,74.74
2023-03-06T19:26:43.270Z,74.57
2023-03-06T19:29:12.141Z,75.22
2023-03-06T19:31:41.170Z,74.80
2023-03-06T19:34:11.748Z,75.11
2023-03-06T19:36:40.986Z,75.47
2023-03-06T19:39:10.560Z,75.03
2023-03-06T19:41:39.139Z,75.49
2023-03-06T19:44:07.829Z,75.02
2023-03-06T19:46:37.957Z,75.84
2023-03-06T19:49:12.229Z,75.26
2023-03-06T19:51:42.501Z,76.04
2023-03-06T19:54:12.496Z,75.10
2023-03-06T19:56:41.684Z,75.27
2023-03-06T19:59:10.349Z,75.25
2023-03-06T20:01:40.214Z,75.28
2023-03-06T20:04:09.089Z,75.50
2023-03-06T20:06:39.008Z,75.56
2023-03-06T20:09:10.928Z,75.43
2023-03-06T20:11:40.343Z,76.50
2023-03-06T20:14:10.179Z,76.22
2023-03-06T20:16:39.316Z,76.88
2023-03-06T20:19:08.905Z,76.81
2023-03-06T20:21:38.095Z,76.27
2023-03-06T20:24:10.121Z,76.15
2023-03-06T20:26:39.011Z,76.48
2023-03-06T20:29:07.750Z,76.92
2023-03-06T20:31:37.463Z,76.23
2023-03-06T20:34:06.601Z,76.26
2023-03-06T20:36:37.443Z,76.68
2023-03-06T20:39:10.308Z,76.32
2023-03-06T20:41:39.655Z,77.23
2023-03-06T20:44:13.366Z,77.03
2023-03-06T20:46:42.637Z,76.74
2023-03-06T20:49:13.636Z,76.81
2023-03-06T20:51:42.862Z,77.24
2023-03-06T20:54:15.105Z,77.22
2023-03-06T20:56:47.006Z,76.93
2023-03-06T20:59:16.629Z,77.10
2023-03-06T21:01:47.106Z,76.81
2023-03-06T21:04:15.995Z,77.61
2023-03-06T21:06:47.121Z,77.56
2023-03-06T21:09:18.455Z,77.06
2023-03-06T21:11:47.947Z,76.81
2023-03-06T21:14:16.867Z,76.55
2023-03-06T21:16:46.306Z,77.21
2023-03-06T21:19:15.405Z,76.98
2023-03-06T21:21:44.116Z,76.78
2023-03-06T21:24:12.827Z,77.75
2023-03-06T21:26:43.053Z,77.63
2023-03-06T21:29:11.909Z,78.03
2023-03-06T21:31:41.096Z,77.42
2023-03-06T21:34:11.743Z,77.11
2023-03-06T21:36:40.679Z,77.13
2023-03-06T21:39:09.421Z,77.17
2023-03-06T21:41:38.389Z,77.87
2023-03-06T21:44:08.716Z,77.81
2023-03-06T21:46:37.921Z,77.64
2023-03-06T21:49:06.974Z,77.49
2023-03-06T21:51:35.994Z,78.08
2023-03-06T21:54:04.994Z,77.37
2023-03-06T21:56:33.845Z,78.34
2023-03-06T21:59:02.750Z,77.85
2023-03-06T22:01:32.871Z,78.32
2023-03-06T22:04:01.821Z,77.73
2023-03-06T22:06:32.211Z,78.25
2023-03-06T22:09:02.518Z,77.93
2023-03-06T22:11:34.726Z,78.01
2023-03-06T22:14:03.657Z,78.46
2023-03-06T22:16:34.309Z,77.74
2023-03-06T22:19:03.156Z,77.70
2023-03-06T22:21:31.956Z,77.84
2023-03-06T22:24:01.362Z,77.99
2023-03-06T22:26:30.916Z,77.87
2023-03-06T22:28:59.823Z,77.53
2023-03-06T22:31:30.422Z,77.83
2023-03-06T22:34:01.819Z,77.96
2023-03-06T22:36:32.056Z,77.18
2023-03-06T22:39:03.089Z,78.04
2023-03-06T22:41:32.313Z,77.62
2023-03-06T22:44:02.638Z,77.87
2023-03-06T22:46:32.188Z,78.00
2023-03-06T22:49:03.391Z,78.12
2023-03-06T22:51:32.381Z,78.17
2023-03-06T22:54:01.095Z,78.84
2023-03-06T22:56:29.968Z,78.33
2023-03-06T22:58:59.118Z,78.51
2023-03-06T23:01:29.568Z,78.47
2023-03-06T23:04:00.078Z,78.55
2023-03-06T23:06:32.694Z,79.09
2023-03-06T23:09:04.189Z,79.24
2023-03-06T23:11:33.893Z,79.45
2023-03-06T23:14:14.339Z,78.93
2023-03-06T23:16:54.152Z,78.83
2023-03-06T23:19:35.347Z,79.34
2023-03-06T23:22:16.755Z,79.49
2023-03-06T23:24:56.640Z,79.33
2023-03-06T23:27:25.490Z,79.06
2023-03-06T23:29:57.205Z,78.88
2023-03-06T23:32:26.114Z,78.53
2023-03-06T23:34:55.072Z,79.11
2023-03-06T23:37:25.773Z,79.14
2023-03-06T23:39:54.591Z,79.56
2023-03-06T23:42:24.136Z,79.22
2023-03-06T23:44:53.002Z,79.70
2023-03-06T23:47:21.696Z,79.42
2023-03-06T23:49:50.525Z,79.54
2023-03-06T23:52:19.290Z,79.09
2023-03-06T23:54:51.415Z,78.74
2023-03-06T23:57:20.308Z,78.70
2023-03-06T23:59:48.977Z,78.92
